Time;durP1;ratioP1;P1;durP2;ratioP2;P2;SDS_P1;SDS_P2;PMS_P1;PMS_P2;Temp;Humidity;BMP_temperature;BMP_pressure;BME280_temperature;BME280_humidity;BME280_pressure;Samples;Min_cycle;Max_cycle;Signal;HPM_P1;HPM_P2
2021/12/26 00:02:16;;;;;;;13.87;7.40;;;4.50;82.50;;;;;;4974025;28;47646;-80
2021/12/26 00:04:41;;;;;;;12.87;7.30;;;4.50;82.50;;;;;;4984469;28;46270;-80
2021/12/26 00:07:07;;;;;;;15.13;7.60;;;4.50;82.50;;;;;;5017253;28;46309;-80
2021/12/26 00:09:33;;;;;;;15.23;7.77;;;4.50;82.30;;;;;;4981192;28;46302;-79
2021/12/26 00:11:58;;;;;;;16.00;7.77;;;4.50;82.30;;;;;;4970130;28;47889;-79
2021/12/26 00:14:24;;;;;;;16.37;7.53;;;4.50;82.40;;;;;;4972769;28;47009;-81
2021/12/26 00:16:50;;;;;;;13.70;7.57;;;4.40;82.40;;;;;;4974724;28;46647;-79
2021/12/26 00:19:18;;;;;;;14.20;6.90;;;4.40;82.50;;;;;;4974768;28;46650;-80
2021/12/26 00:21:44;;;;;;;12.45;7.35;;;4.50;82.00;;;;;;4975826;28;46367;-81
2021/12/26 00:24:09;;;;;;;13.40;7.47;;;4.60;81.80;;;;;;4974964;28;46383;-79
2021/12/26 00:26:37;;;;;;;13.70;7.20;;;4.70;81.40;;;;;;4979070;28;46463;-82
2021/12/26 00:29:03;;;;;;;12.60;7.13;;;4.80;81.00;;;;;;4974994;28;46434;-80
2021/12/26 00:31:29;;;;;;;14.10;8.30;;;4.80;80.80;;;;;;4975438;28;47080;-81
2021/12/26 00:33:54;;;;;;;14.30;7.57;;;4.80;80.70;;;;;;5006537;28;46492;-79
2021/12/26 00:36:20;;;;;;;14.27;7.13;;;4.90;80.50;;;;;;4978111;28;46454;-79
2021/12/26 00:38:46;;;;;;;12.50;7.10;;;4.90;80.70;;;;;;4976497;28;46556;-79
2021/12/26 00:41:11;;;;;;;10.83;7.30;;;4.80;80.70;;;;;;4977680;28;48366;-82
2021/12/26 00:43:37;;;;;;;13.33;6.87;;;4.80;80.60;;;;;;4973483;28;47139;-83
2021/12/26 00:46:03;;;;;;;10.13;6.13;;;4.80;80.80;;;;;;5006652;28;46736;-84
2021/12/26 00:48:29;;;;;;;11.37;6.40;;;4.80;80.80;;;;;;4977082;28;46315;-82
2021/12/26 00:50:55;;;;;;;14.60;8.13;;;4.80;80.90;;;;;;4976785;28;47583;-81
2021/12/26 00:53:21;;;;;;;13.25;7.43;;;4.70;81.10;;;;;;4975780;28;46376;-83
2021/12/26 00:55:46;;;;;;;16.30;7.60;;;4.70;81.30;;;;;;4977317;28;46380;-81
2021/12/26 00:58:12;;;;;;;13.30;7.00;;;4.70;81.50;;;;;;4976378;28;46444;-82
2021/12/26 01:00:43;;;;;;;12.27;7.27;;;4.60;81.60;;;;;;4974183;28;46584;-82
2021/12/26 01:03:10;;;;;;;13.68;7.30;;;4.60;81.70;;;;;;4974278;28;46408;-82
2021/12/26 01:05:42;;;;;;;14.55;7.65;;;4.70;81.60;;;;;;4975915;28;46632;-83
2021/12/26 01:08:09;;;;;;;12.23;7.60;;;4.60;81.70;;;;;;4974798;28;46379;-81
2021/12/26 01:10:43;;;;;;;11.40;7.17;;;4.60;81.70;;;;;;4975842;28;46660;-83
2021/12/26 01:13:27;;;;;;;12.48;7.05;;;4.70;81.70;;;;;;4973512;28;46455;-82
2021/12/26 01:15:56;;;;;;;12.52;7.13;;;4.70;81.50;;;;;;4974188;28;45841;-83
2021/12/26 01:18:22;;;;;;;13.43;7.40;;;4.70;81.50;;;;;;4976933;28;46895;-87
2021/12/26 01:20:54;;;;;;;14.50;7.90;;;4.60;81.40;;;;;;4977132;28;47265;-83
2021/12/26 01:23:24;;;;;;;11.05;6.70;;;4.60;81.60;;;;;;4978112;28;46451;-85
2021/12/26 01:25:50;;;;;;;15.27;6.70;;;4.70;81.70;;;;;;4975802;28;46735;-83
2021/12/26 01:28:18;;;;;;;10.93;6.40;;;4.60;81.70;;;;;;4975533;28;46807;-83
2021/12/26 01:30:44;;;;;;;10.83;6.73;;;4.60;81.90;;;;;;4974322;28;48126;-84
2021/12/26 01:33:12;;;;;;;10.23;6.30;;;4.50;81.90;;;;;;4976127;28;46372;-85
2021/12/26 01:35:41;;;;;;;12.35;6.90;;;4.60;82.00;;;;;;4975425;28;46734;-83
2021/12/26 01:38:10;;;;;;;12.67;7.60;;;4.60;81.90;;;;;;4977807;28;45834;-82
2021/12/26 01:40:38;;;;;;;15.37;6.97;;;4.60;81.70;;;;;;4979244;28;46388;-83
2021/12/26 01:43:07;;;;;;;13.70;7.50;;;4.60;81.80;;;;;;4976562;28;46835;-82
2021/12/26 01:45:32;;;;;;;10.20;6.50;;;4.60;82.00;;;;;;4975987;28;46454;-82
2021/12/26 01:48:03;;;;;;;12.30;7.43;;;4.60;81.70;;;;;;4978718;28;46642;-84
2021/12/26 01:50:29;;;;;;;13.60;6.70;;;4.50;81.60;;;;;;5005308;28;47999;-83
2021/12/26 01:52:55;;;;;;;12.50;6.93;;;4.60;81.70;;;;;;4973577;28;46837;-84
2021/12/26 01:55:37;;;;;;;12.93;6.67;;;4.50;81.70;;;;;;4974524;28;46449;-83
2021/12/26 01:58:03;;;;;;;13.00;6.70;;;4.50;81.70;;;;;;4976633;28;46317;-83
2021/12/26 02:00:29;;;;;;;12.00;7.50;;;4.60;81.70;;;;;;4976016;28;46426;-81
2021/12/26 02:02:55;;;;;;;17.38;8.52;;;4.50;81.70;;;;;;4994956;28;46591;-83
2021/12/26 02:05:21;;;;;;;14.20;8.20;;;4.60;81.80;;;;;;4975988;28;46846;-82
2021/12/26 02:07:47;;;;;;;18.07;9.47;;;4.60;81.60;;;;;;4978217;28;46450;-86
2021/12/26 02:10:13;;;;;;;17.17;8.67;;;4.60;81.50;;;;;;4992961;28;46951;-83
2021/12/26 02:12:39;;;;;;;22.27;9.20;;;4.60;81.40;;;;;;4975157;28;46496;-85
2021/12/26 02:15:05;;;;;;;15.75;8.30;;;4.60;81.40;;;;;;4973003;28;46529;-85
2021/12/26 02:17:31;;;;;;;14.50;8.80;;;4.70;81.20;;;;;;4973460;28;46713;-83
2021/12/26 02:20:19;;;;;;;15.70;9.23;;;4.60;81.20;;;;;;4976445;28;46387;-82
2021/12/26 02:22:49;;;;;;;17.50;9.13;;;4.70;81.10;;;;;;5004536;28;46317;-83
2021/12/26 02:25:30;;;;;;;17.10;8.50;;;4.70;80.90;;;;;;4977335;28;46411;-83
2021/12/26 02:27:56;;;;;;;14.50;8.13;;;4.70;80.70;;;;;;4974486;28;46431;-82
2021/12/26 02:30:24;;;;;;;14.23;8.13;;;4.60;80.90;;;;;;5004143;28;48268;-82
2021/12/26 02:32:52;;;;;;;14.38;8.20;;;4.60;81.00;;;;;;4973853;28;46351;-82
2021/12/26 02:35:21;;;;;;;13.73;7.93;;;4.70;80.90;;;;;;4974649;28;45845;-82
2021/12/26 02:37:47;;;;;;;16.67;9.17;;;4.80;80.80;;;;;;4975624;28;45883;-82
2021/12/26 02:40:16;;;;;;;18.03;10.00;;;4.90;80.70;;;;;;4972551;28;47278;-83
2021/12/26 02:42:42;;;;;;;14.18;8.93;;;4.80;80.50;;;;;;4977113;28;46629;-81
2021/12/26 02:45:08;;;;;;;17.20;9.70;;;4.80;80.60;;;;;;4976442;28;46793;-84
2021/12/26 02:47:39;;;;;;;14.57;8.83;;;4.80;80.50;;;;;;4976580;28;46661;-83
2021/12/26 02:50:30;;;;;;;17.30;9.60;;;4.90;80.50;;;;;;4975198;28;50637;-82
2021/12/26 02:53:01;;;;;;;16.63;9.35;;;4.80;80.50;;;;;;4977508;28;46466;-84
2021/12/26 02:55:27;;;;;;;18.60;9.80;;;4.80;80.30;;;;;;4976448;28;45786;-83
2021/12/26 02:57:56;;;;;;;22.03;9.97;;;4.90;80.10;;;;;;4975760;28;46383;-85
2021/12/26 03:00:28;;;;;;;17.70;9.60;;;4.90;80.20;;;;;;4973659;28;49313;-82
2021/12/26 03:02:56;;;;;;;18.90;9.77;;;4.90;80.20;;;;;;4975649;28;46732;-81
2021/12/26 03:05:25;;;;;;;19.27;9.77;;;4.90;80.10;;;;;;4972694;28;46503;-83
2021/12/26 03:07:53;;;;;;;22.27;10.20;;;4.80;80.30;;;;;;4974435;28;46662;-83
2021/12/26 03:10:22;;;;;;;25.43;11.00;;;4.70;80.70;;;;;;4974899;28;46916;-83
2021/12/26 03:12:53;;;;;;;22.00;11.10;;;4.50;81.30;;;;;;4974086;28;46348;-80
2021/12/26 03:15:19;;;;;;;26.35;11.25;;;4.40;81.70;;;;;;4974076;28;46644;-81
2021/12/26 03:17:45;;;;;;;21.87;10.43;;;4.40;81.80;;;;;;4972808;28;46526;-80
2021/12/26 03:20:14;;;;;;;19.33;10.25;;;4.40;81.80;;;;;;4973052;28;47145;-83
2021/12/26 03:22:44;;;;;;;20.95;9.90;;;4.40;81.70;;;;;;4972646;28;46483;-82
2021/12/26 03:25:15;;;;;;;18.80;10.98;;;4.50;82.90;;;;;;4971787;28;46765;-83
2021/12/26 03:27:41;;;;;;;20.27;11.50;;;4.50;81.50;;;;;;4974073;28;46431;-82
2021/12/26 03:30:09;;;;;;;19.67;11.07;;;4.50;81.40;;;;;;4971791;28;46400;-83
2021/12/26 03:32:35;;;;;;;22.48;11.30;;;4.50;81.30;;;;;;4973774;28;46367;-82
2021/12/26 03:35:03;;;;;;;20.87;10.33;;;4.70;81.10;;;;;;4973428;28;46454;-83
2021/12/26 03:37:28;;;;;;;17.90;10.23;;;4.60;81.00;;;;;;4974575;28;46796;-82
2021/12/26 03:39:55;;;;;;;21.43;11.63;;;4.60;81.00;;;;;;4972460;28;48568;-81
2021/12/26 03:42:21;;;;;;;21.98;10.82;;;4.50;81.30;;;;;;4976836;28;46389;-82
2021/12/26 03:44:48;;;;;;;19.33;11.63;;;4.50;81.40;;;;;;5003935;28;46464;-82
2021/12/26 03:47:17;;;;;;;23.13;11.30;;;4.40;81.40;;;;;;4973385;28;46490;-83
2021/12/26 03:49:43;;;;;;;21.65;11.15;;;4.50;81.70;;;;;;4976583;28;46703;-84
2021/12/26 03:52:09;;;;;;;20.13;11.73;;;4.50;81.50;;;;;;4974842;28;46742;-85
2021/12/26 03:54:34;;;;;;;25.10;12.10;;;4.60;81.40;;;;;;5002971;28;46629;-86
2021/12/26 03:57:00;;;;;;;22.83;11.80;;;4.60;81.00;;;;;;4973535;28;46326;-81
2021/12/26 03:59:27;;;;;;;22.13;12.60;;;4.60;82.10;;;;;;4973488;28;46609;-83
2021/12/26 04:01:54;;;;;;;21.98;11.82;;;4.50;81.10;;;;;;4974180;28;46632;-80
2021/12/26 04:04:20;;;;;;;25.23;12.63;;;4.60;81.20;;;;;;4975738;28;45904;-86
2021/12/26 04:06:46;;;;;;;21.93;12.30;;;4.60;81.20;;;;;;4976408;28;46734;-84
2021/12/26 04:09:14;;;;;;;25.97;12.97;;;4.60;81.20;;;;;;4975048;28;46235;-84
2021/12/26 04:11:43;;;;;;;24.83;13.25;;;4.60;81.10;;;;;;4976595;28;46541;-83
2021/12/26 04:14:09;;;;;;;21.95;12.27;;;4.60;81.10;;;;;;4979145;28;46696;-84
2021/12/26 04:16:35;;;;;;;30.90;13.27;;;4.60;81.30;;;;;;4975433;28;46422;-81
2021/12/26 04:19:08;;;;;;;20.70;12.20;;;4.50;81.20;;;;;;4971355;28;46426;-83
2021/12/26 04:21:33;;;;;;;22.90;12.07;;;4.60;81.30;;;;;;4972042;28;46895;-81
2021/12/26 04:24:05;;;;;;;23.30;12.50;;;4.60;81.20;;;;;;4973116;28;46813;-83
2021/12/26 04:26:31;;;;;;;23.17;11.73;;;4.60;81.10;;;;;;4975111;28;46017;-82
2021/12/26 04:28:59;;;;;;;21.83;12.83;;;4.50;81.10;;;;;;4974425;28;46262;-82
2021/12/26 04:31:25;;;;;;;24.65;13.50;;;4.50;81.20;;;;;;4973898;28;46730;-85
2021/12/26 04:33:50;;;;;;;26.00;12.87;;;4.50;81.30;;;;;;4976109;28;46465;-86
2021/12/26 04:36:17;;;;;;;24.17;13.00;;;4.50;81.40;;;;;;4975325;28;46336;-84
2021/12/26 04:38:44;;;;;;;25.30;13.27;;;4.60;81.50;;;;;;4976260;28;46761;-82
2021/12/26 04:41:11;;;;;;;27.25;14.48;;;4.60;81.10;;;;;;4976533;28;46545;-82
2021/12/26 04:43:39;;;;;;;25.90;13.20;;;4.70;81.00;;;;;;4972096;28;46697;-82
2021/12/26 04:46:07;;;;;;;25.73;13.80;;;4.70;80.80;;;;;;4989650;28;46615;-82
2021/12/26 04:48:38;;;;;;;25.97;14.40;;;4.70;80.90;;;;;;4973921;28;46384;-82
2021/12/26 04:51:06;;;;;;;22.63;12.75;;;4.70;80.90;;;;;;4974836;28;46481;-83
2021/12/26 04:53:38;;;;;;;23.90;13.47;;;4.70;80.90;;;;;;4974408;28;46432;-83
2021/12/26 04:56:04;;;;;;;25.73;14.03;;;4.70;81.00;;;;;;4974957;28;46365;-82
2021/12/26 04:58:33;;;;;;;24.70;13.43;;;4.70;80.60;;;;;;4973501;28;48762;-81
2021/12/26 05:00:59;;;;;;;24.63;13.57;;;4.70;80.50;;;;;;4972068;28;46399;-81
2021/12/26 05:03:28;;;;;;;31.23;14.80;;;4.70;80.50;;;;;;5001566;28;46411;-83
2021/12/26 05:05:53;;;;;;;22.97;12.93;;;4.70;80.60;;;;;;4972081;28;46665;-81
2021/12/26 05:08:21;;;;;;;21.77;13.20;;;4.60;80.90;;;;;;4972679;28;46355;-82
2021/12/26 05:10:46;;;;;;;22.95;12.82;;;4.60;81.10;;;;;;4975857;28;45942;-83
2021/12/26 05:13:12;;;;;;;23.40;13.60;;;4.70;81.20;;;;;;4975669;28;46363;-83
2021/12/26 05:15:37;;;;;;;34.13;14.17;;;4.60;81.10;;;;;;4975659;28;46440;-82
2021/12/26 05:18:05;;;;;;;27.73;13.33;;;4.60;81.10;;;;;;4976804;28;47409;-84
2021/12/26 05:20:31;;;;;;;27.00;14.35;;;4.60;81.10;;;;;;4974743;28;46336;-82
2021/12/26 05:22:57;;;;;;;35.83;14.77;;;4.70;81.20;;;;;;4973946;28;46691;-82
2021/12/26 05:25:23;;;;;;;25.50;14.10;;;4.50;81.20;;;;;;5005690;28;46358;-81
2021/12/26 05:27:51;;;;;;;27.05;14.00;;;4.50;81.40;;;;;;4976907;28;46872;-82
2021/12/26 05:30:22;;;;;;;24.60;13.57;;;4.50;81.50;;;;;;4973429;28;46497;-83
2021/12/26 05:32:48;;;;;;;24.50;13.88;;;4.50;81.50;;;;;;4972822;28;46460;-81
2021/12/26 05:35:15;;;;;;;21.70;13.80;;;4.60;81.40;;;;;;4974760;28;46770;-82
2021/12/26 05:37:41;;;;;;;34.57;14.83;;;4.60;81.10;;;;;;4973315;28;49971;-82
2021/12/26 05:40:09;;;;;;;24.40;14.10;;;4.60;81.00;;;;;;4975733;28;46194;-81
2021/12/26 05:42:35;;;;;;;33.97;16.07;;;4.70;81.00;;;;;;4974274;28;46687;-80
2021/12/26 05:45:01;;;;;;;35.00;17.63;;;4.70;81.00;;;;;;4974883;28;46674;-82
2021/12/26 05:47:27;;;;;;;40.47;15.30;;;4.70;80.90;;;;;;4977251;28;47685;-82
2021/12/26 05:49:52;;;;;;;32.83;14.30;;;4.70;80.70;;;;;;5006101;28;46116;-81
2021/12/26 05:52:18;;;;;;;28.60;13.27;;;4.70;80.80;;;;;;4975774;28;46645;-81
2021/12/26 05:54:45;;;;;;;26.40;13.47;;;4.70;80.80;;;;;;4976564;28;46707;-81
2021/12/26 05:57:13;;;;;;;37.80;13.27;;;4.60;80.80;;;;;;4975347;28;46537;-82
2021/12/26 05:59:39;;;;;;;30.30;14.23;;;4.60;81.00;;;;;;4990430;28;46375;-82
2021/12/26 06:02:07;;;;;;;29.60;14.90;;;4.50;81.40;;;;;;4976204;28;46762;-84
2021/12/26 06:04:33;;;;;;;27.23;13.73;;;4.40;81.70;;;;;;4976171;28;46681;-82
2021/12/26 06:06:59;;;;;;;23.63;13.77;;;4.50;81.60;;;;;;5007511;28;48561;-84
2021/12/26 06:09:25;;;;;;;23.00;13.50;;;4.60;81.40;;;;;;4981464;28;46458;-84
2021/12/26 06:11:50;;;;;;;21.60;13.17;;;4.60;81.10;;;;;;4977835;28;46610;-82
2021/12/26 06:14:20;;;;;;;24.40;14.00;;;4.60;81.20;;;;;;4976448;28;46470;-83
2021/12/26 06:16:47;;;;;;;20.70;13.43;;;4.60;81.10;;;;;;4976690;28;46796;-83
2021/12/26 06:19:12;;;;;;;24.00;13.60;;;4.60;80.90;;;;;;4979647;28;46387;-83
2021/12/26 06:21:38;;;;;;;25.87;13.80;;;4.70;80.70;;;;;;4973856;28;46377;-82
2021/12/26 06:24:09;;;;;;;26.83;14.40;;;4.80;80.60;;;;;;4974749;28;46438;-84
2021/12/26 06:26:37;;;;;;;38.83;14.40;;;4.80;80.40;;;;;;4975466;28;46639;-83
2021/12/26 06:29:06;;;;;;;24.30;14.15;;;4.80;80.00;;;;;;4973800;28;47044;-83
2021/12/26 06:31:31;;;;;;;22.63;14.00;;;4.80;80.10;;;;;;4975880;28;46958;-83
2021/12/26 06:33:57;;;;;;;24.60;13.80;;;4.90;80.20;;;;;;4972025;28;45855;-83
2021/12/26 06:36:22;;;;;;;26.37;13.13;;;4.90;80.00;;;;;;4976065;28;46665;-83
2021/12/26 06:38:53;;;;;;;24.67;16.13;;;5.00;80.20;;;;;;4975216;28;46447;-84
2021/12/26 06:41:22;;;;;;;21.13;13.43;;;5.00;79.70;;;;;;4975946;28;46481;-83
2021/12/26 06:43:47;;;;;;;19.70;13.20;;;5.00;80.20;;;;;;4973975;28;47031;-81
2021/12/26 06:46:16;;;;;;;22.00;11.93;;;5.10;80.20;;;;;;4971962;28;46733;-83
2021/12/26 06:48:45;;;;;;;20.13;12.35;;;5.00;80.00;;;;;;4976436;28;46648;-81
2021/12/26 06:51:10;;;;;;;18.33;11.75;;;5.00;80.00;;;;;;4976796;28;45830;-81
2021/12/26 06:53:36;;;;;;;20.10;12.50;;;5.00;80.20;;;;;;4980358;28;47177;-82
2021/12/26 06:56:03;;;;;;;22.50;12.93;;;5.00;80.20;;;;;;4993641;28;48089;-81
2021/12/26 06:58:28;;;;;;;20.83;13.03;;;4.90;80.20;;;;;;4978492;28;46936;-82
2021/12/26 07:00:54;;;;;;;20.83;12.43;;;4.90;80.00;;;;;;4977654;28;46494;-81
2021/12/26 07:03:19;;;;;;;18.43;12.03;;;4.90;80.10;;;;;;4976490;28;46436;-81
2021/12/26 07:05:45;;;;;;;18.20;11.40;;;4.90;80.30;;;;;;4975795;28;46524;-79
2021/12/26 07:08:11;;;;;;;19.40;11.30;;;4.90;80.30;;;;;;4975310;28;46397;-82
2021/12/26 07:10:39;;;;;;;21.00;12.47;;;4.90;80.30;;;;;;4977638;28;45690;-82
2021/12/26 07:13:04;;;;;;;33.03;18.03;;;4.80;80.30;;;;;;4978109;28;46467;-81
2021/12/26 07:15:30;;;;;;;21.30;12.67;;;4.90;80.30;;;;;;4977789;28;46768;-82
2021/12/26 07:17:56;;;;;;;20.90;12.70;;;4.90;80.10;;;;;;4974714;28;46440;-82
2021/12/26 07:20:21;;;;;;;21.13;12.23;;;5.00;79.90;;;;;;4978919;28;46488;-83
2021/12/26 07:22:47;;;;;;;21.00;12.33;;;5.00;79.80;;;;;;4978439;28;46911;-80
2021/12/26 07:25:13;;;;;;;21.00;13.07;;;5.00;79.60;;;;;;4976162;28;48375;-79
2021/12/26 07:27:42;;;;;;;19.97;11.30;;;5.00;80.00;;;;;;4978704;28;47176;-83
2021/12/26 07:30:11;;;;;;;18.37;11.67;;;5.00;80.10;;;;;;4980017;28;46425;-83
2021/12/26 07:32:36;;;;;;;22.37;12.40;;;5.00;80.20;;;;;;4977275;28;46411;-83
2021/12/26 07:35:08;;;;;;;17.37;10.87;;;4.90;80.30;;;;;;4978121;28;47097;-81
2021/12/26 07:37:34;;;;;;;19.77;11.45;;;4.90;80.20;;;;;;4977974;28;46526;-82
2021/12/26 07:39:59;;;;;;;18.23;11.33;;;5.00;79.90;;;;;;5008285;28;46889;-84
2021/12/26 07:42:25;;;;;;;16.27;11.17;;;5.00;79.90;;;;;;4978260;28;46669;-81
2021/12/26 07:44:53;;;;;;;17.40;10.67;;;4.90;80.20;;;;;;4976273;28;46460;-83
2021/12/26 07:47:18;;;;;;;17.30;11.67;;;4.90;80.30;;;;;;4974063;28;46393;-83
2021/12/26 07:49:44;;;;;;;15.90;10.90;;;4.90;80.10;;;;;;4975112;28;46537;-80
2021/12/26 07:52:17;;;;;;;18.80;11.60;;;4.90;79.70;;;;;;4977871;28;46430;-83
2021/12/26 07:54:44;;;;;;;17.00;10.57;;;5.00;79.60;;;;;;4979435;28;46708;-83
2021/12/26 07:57:10;;;;;;;16.23;10.73;;;4.90;79.40;;;;;;4981027;28;46442;-84
2021/12/26 07:59:36;;;;;;;17.00;11.03;;;4.90;79.40;;;;;;4977694;28;46467;-81
2021/12/26 08:02:03;;;;;;;18.23;11.87;;;4.90;79.50;;;;;;4974917;28;46148;-81
2021/12/26 08:04:28;;;;;;;16.80;9.97;;;4.90;79.70;;;;;;5003081;28;46463;-80
2021/12/26 08:06:58;;;;;;;17.50;10.00;;;4.90;79.70;;;;;;4971906;28;46464;-81
2021/12/26 08:09:26;;;;;;;16.07;9.80;;;5.00;79.70;;;;;;4975095;28;46423;-82
2021/12/26 08:11:52;;;;;;;16.00;9.53;;;5.00;79.60;;;;;;4976669;28;46392;-82
2021/12/26 08:14:17;;;;;;;14.47;10.40;;;5.00;79.70;;;;;;4975851;28;46407;-80
2021/12/26 08:16:45;;;;;;;16.90;10.23;;;4.90;80.00;;;;;;4972630;28;46705;-81
2021/12/26 08:19:11;;;;;;;16.60;9.90;;;5.00;80.00;;;;;;4974887;28;46487;-79
2021/12/26 08:21:37;;;;;;;16.33;9.40;;;5.00;79.80;;;;;;4976834;28;46605;-82
2021/12/26 08:24:03;;;;;;;14.50;9.27;;;5.10;79.70;;;;;;4974441;28;46357;-82
2021/12/26 08:26:29;;;;;;;13.70;8.57;;;5.30;79.20;;;;;;4971200;28;46621;-82
2021/12/26 08:28:54;;;;;;;15.83;10.00;;;5.30;79.00;;;;;;4971692;28;45890;-80
2021/12/26 08:31:23;;;;;;;14.90;9.40;;;5.30;78.90;;;;;;4973620;28;46588;-82
2021/12/26 08:33:51;;;;;;;17.30;10.50;;;5.20;79.40;;;;;;4973064;28;46940;-81
2021/12/26 08:36:21;;;;;;;14.20;9.40;;;5.30;79.30;;;;;;4973395;28;46257;-80
2021/12/26 08:38:46;;;;;;;14.90;9.70;;;5.20;79.20;;;;;;4973293;28;46868;-80
2021/12/26 08:41:15;;;;;;;15.43;10.20;;;5.20;79.30;;;;;;4975798;28;46568;-80
2021/12/26 08:43:43;;;;;;;15.17;10.27;;;5.20;79.30;;;;;;4973503;28;48219;-80
2021/12/26 08:46:09;;;;;;;15.20;10.05;;;5.20;79.20;;;;;;4977424;28;46391;-79
2021/12/26 08:48:37;;;;;;;16.90;10.80;;;5.40;79.90;;;;;;4976106;28;46458;-82
2021/12/26 08:51:04;;;;;;;14.20;9.30;;;5.50;78.60;;;;;;5007142;28;46539;-82
2021/12/26 08:53:32;;;;;;;16.17;10.60;;;5.50;78.30;;;;;;4976151;28;48236;-81
2021/12/26 08:55:59;;;;;;;17.70;10.38;;;5.60;78.30;;;;;;4977744;28;46690;-82
2021/12/26 08:58:25;;;;;;;15.23;10.10;;;5.70;78.10;;;;;;4980933;28;46761;-81
2021/12/26 09:00:51;;;;;;;15.77;10.63;;;5.80;77.90;;;;;;4970356;28;46678;-80
2021/12/26 09:03:17;;;;;;;15.30;10.43;;;5.80;77.60;;;;;;4974171;28;48183;-81
2021/12/26 09:05:42;;;;;;;15.37;10.60;;;5.90;77.50;;;;;;4976111;28;46761;-82
2021/12/26 09:08:10;;;;;;;16.23;10.00;;;5.90;77.40;;;;;;4977868;28;46819;-79
2021/12/26 09:10:43;;;;;;;17.53;11.47;;;5.80;77.60;;;;;;4976555;28;46406;-81
2021/12/26 09:13:09;;;;;;;14.73;10.47;;;5.80;77.70;;;;;;4977625;28;47031;-82
2021/12/26 09:15:37;;;;;;;33.50;17.10;;;5.80;77.60;;;;;;4977776;28;46501;-80
2021/12/26 09:18:03;;;;;;;18.73;10.40;;;5.80;77.70;;;;;;5007243;28;45945;-81
2021/12/26 09:20:34;;;;;;;16.20;11.07;;;5.80;77.60;;;;;;4976255;28;46472;-81
2021/12/26 09:22:59;;;;;;;13.53;9.57;;;5.90;77.70;;;;;;4979372;28;46523;-81
2021/12/26 09:25:25;;;;;;;14.87;9.67;;;5.90;77.60;;;;;;4978741;28;46547;-81
2021/12/26 09:27:51;;;;;;;13.17;9.10;;;5.90;77.60;;;;;;4977674;28;46443;-79
2021/12/26 09:30:16;;;;;;;15.07;9.63;;;6.00;77.60;;;;;;4976925;28;46600;-80
2021/12/26 09:32:43;;;;;;;16.67;11.90;;;6.00;77.60;;;;;;4976510;28;46554;-80
2021/12/26 09:35:09;;;;;;;14.20;10.23;;;6.20;77.40;;;;;;4977228;28;46408;-81
2021/12/26 09:37:35;;;;;;;15.70;10.10;;;6.30;77.60;;;;;;4978126;28;46810;-84
2021/12/26 09:40:03;;;;;;;13.57;8.70;;;6.30;77.40;;;;;;4976125;28;46396;-80
2021/12/26 09:42:29;;;;;;;15.10;9.87;;;6.40;77.30;;;;;;5005536;28;49651;-78
2021/12/26 09:44:55;;;;;;;16.30;8.97;;;6.40;77.40;;;;;;5004517;28;46649;-79
2021/12/26 09:47:22;;;;;;;14.97;10.20;;;6.30;77.50;;;;;;4976633;28;46978;-82
2021/12/26 09:49:48;;;;;;;13.60;9.50;;;6.30;77.40;;;;;;4975528;28;46453;-82
2021/12/26 09:52:14;;;;;;;14.97;10.17;;;6.30;77.60;;;;;;4975322;28;47714;-81
2021/12/26 09:54:39;;;;;;;16.23;10.53;;;6.30;77.60;;;;;;4974085;28;45810;-80
2021/12/26 09:57:05;;;;;;;14.27;9.47;;;6.30;77.60;;;;;;4973098;28;46956;-83
2021/12/26 09:59:31;;;;;;;12.97;8.97;;;6.40;77.50;;;;;;4974570;28;46488;-79
2021/12/26 10:02:06;;;;;;;15.00;9.90;;;6.50;77.30;;;;;;4975892;28;48119;-79
2021/12/26 10:04:35;;;;;;;14.03;9.80;;;6.60;76.90;;;;;;4973847;28;46821;-78
2021/12/26 10:07:09;;;;;;;17.00;10.80;;;6.80;76.10;;;;;;4974776;28;46750;-84
2021/12/26 10:09:54;;;;;;;16.43;10.80;;;7.00;75.40;;;;;;4973794;28;46480;-80
2021/12/26 10:12:23;;;;;;;16.13;10.00;;;7.20;75.50;;;;;;4976000;28;46460;-81
2021/12/26 10:14:55;;;;;;;16.23;11.03;;;7.30;75.60;;;;;;4976881;28;46645;-82
2021/12/26 10:17:26;;;;;;;15.70;10.57;;;7.30;75.70;;;;;;4976950;28;46913;-82
2021/12/26 10:20:08;;;;;;;16.20;10.80;;;7.30;75.60;;;;;;4975655;28;45773;-82
2021/12/26 10:22:33;;;;;;;13.47;8.60;;;7.30;75.70;;;;;;4978202;28;46743;-80
2021/12/26 10:25:07;;;;;;;12.97;8.13;;;7.40;75.70;;;;;;4976842;28;46312;-82
2021/12/26 10:27:32;;;;;;;12.57;8.90;;;7.50;75.70;;;;;;4976639;28;46487;-83
2021/12/26 10:30:00;;;;;;;13.93;8.90;;;7.60;75.30;;;;;;4974540;28;46919;-82
2021/12/26 10:32:37;;;;;;;17.20;10.80;;;7.80;75.10;;;;;;4973790;28;46809;-81
2021/12/26 10:35:13;;;;;;;13.83;9.27;;;7.90;74.80;;;;;;4975814;28;46414;-83
2021/12/26 10:37:47;;;;;;;12.93;8.77;;;8.10;74.70;;;;;;4979984;28;46428;-83
2021/12/26 10:40:25;;;;;;;13.00;8.83;;;8.30;74.30;;;;;;4987971;28;46449;-84
2021/12/26 10:43:00;;;;;;;11.30;8.03;;;8.30;74.10;;;;;;4980610;28;46664;-84
2021/12/26 10:45:31;;;;;;;13.83;9.10;;;8.40;74.00;;;;;;4976066;28;46301;-80
2021/12/26 10:48:02;;;;;;;23.13;8.83;;;8.50;73.90;;;;;;4979832;28;46286;-82
2021/12/26 10:50:30;;;;;;;12.37;8.23;;;8.50;73.70;;;;;;4975568;28;46831;-79
2021/12/26 10:53:11;;;;;;;12.33;8.50;;;8.60;73.70;;;;;;4975771;28;47906;-81
2021/12/26 10:55:41;;;;;;;11.77;7.47;;;8.50;73.50;;;;;;4976025;28;46496;-81
2021/12/26 10:58:15;;;;;;;11.90;8.03;;;8.60;73.70;;;;;;4976374;28;46475;-81
2021/12/26 11:00:43;;;;;;;10.07;7.17;;;8.70;73.40;;;;;;4977495;28;45878;-81
2021/12/26 11:03:13;;;;;;;11.40;8.00;;;8.70;73.30;;;;;;4975521;28;47418;-80
2021/12/26 11:05:43;;;;;;;12.23;6.60;;;8.60;73.80;;;;;;4973482;28;46459;-80
2021/12/26 11:08:15;;;;;;;11.10;7.30;;;8.50;74.40;;;;;;4990501;28;46707;-81
2021/12/26 11:10:45;;;;;;;11.20;7.97;;;8.50;74.70;;;;;;4974865;28;46781;-80
2021/12/26 11:13:34;;;;;;;11.90;7.63;;;8.50;74.90;;;;;;4974671;28;47212;-82
2021/12/26 11:16:12;;;;;;;11.93;7.33;;;8.50;74.80;;;;;;4976616;28;46393;-84
2021/12/26 11:18:40;;;;;;;12.33;8.40;;;8.70;74.60;;;;;;4976068;28;45807;-80
2021/12/26 11:21:08;;;;;;;9.30;7.00;;;8.70;74.50;;;;;;4975309;28;47222;-80
2021/12/26 11:23:39;;;;;;;11.03;7.43;;;8.70;74.70;;;;;;4975062;28;48402;-81
2021/12/26 11:26:08;;;;;;;11.30;7.13;;;8.60;75.00;;;;;;5004576;28;46462;-80
2021/12/26 11:28:37;;;;;;;10.93;6.93;;;8.70;74.80;;;;;;4977030;28;46415;-84
2021/12/26 11:31:07;;;;;;;11.77;7.73;;;8.70;74.60;;;;;;4977375;28;45987;-85
2021/12/26 11:33:33;;;;;;;9.17;6.33;;;8.70;74.90;;;;;;4975225;28;46934;-84
2021/12/26 11:36:01;;;;;;;9.30;6.33;;;8.70;75.00;;;;;;4975455;28;45875;-86
2021/12/26 11:38:27;;;;;;;10.43;7.03;;;8.80;74.50;;;;;;4993946;28;45860;-84
2021/12/26 11:41:01;;;;;;;8.83;5.83;;;9.00;74.20;;;;;;4985327;28;46513;-84
2021/12/26 11:43:55;;;;;;;7.60;5.33;;;9.10;73.80;;;;;;4983085;28;48226;-86
2021/12/26 11:46:23;;;;;;;8.20;5.47;;;9.10;73.60;;;;;;4978719;28;46352;-85
2021/12/26 11:49:11;;;;;;;9.77;6.50;;;9.20;74.20;;;;;;4975718;28;46267;-87
2021/12/26 11:52:07;;;;;;;8.80;5.40;;;9.10;74.10;;;;;;4981170;28;46265;-85
2021/12/26 11:55:24;;;;;;;12.70;6.20;;;9.20;74.20;;;;;;4982041;28;46652;-84
2021/12/26 11:58:28;;;;;;;8.50;5.60;;;9.20;74.20;;;;;;4945545;28;46363;-85
2021/12/26 12:00:57;;;;;;;8.57;5.70;;;9.20;74.40;;;;;;4974950;28;46438;-86
2021/12/26 12:03:29;;;;;;;8.10;5.33;;;9.10;74.50;;;;;;4973950;28;45960;-85
2021/12/26 12:05:56;;;;;;;10.27;6.70;;;9.20;74.60;;;;;;4977112;28;46377;-85
2021/12/26 12:08:23;;;;;;;14.60;6.40;;;9.20;74.80;;;;;;4979265;28;46365;-84
2021/12/26 12:11:03;;;;;;;7.13;5.03;;;9.20;74.70;;;;;;4982773;28;46391;-83
2021/12/26 12:14:04;;;;;;;9.40;5.37;;;9.40;74.90;;;;;;4976213;28;46350;-85
2021/12/26 12:16:33;;;;;;;6.53;4.80;;;9.30;74.50;;;;;;4905776;29;47909;-82
2021/12/26 12:19:07;;;;;;;6.30;4.53;;;9.40;74.70;;;;;;4969585;28;46821;-85
2021/12/26 12:21:51;;;;;;;7.70;5.33;;;9.50;74.40;;;;;;4976318;28;46290;-84
2021/12/26 12:24:18;;;;;;;7.37;5.27;;;9.50;74.30;;;;;;4972664;28;46414;-85
2021/12/26 12:27:09;;;;;;;6.73;4.83;;;9.50;74.90;;;;;;4976257;28;46467;-87
2021/12/26 12:29:47;;;;;;;8.00;4.60;;;9.50;74.60;;;;;;4982597;28;46445;-85
2021/12/26 12:32:26;;;;;;;8.50;5.53;;;9.50;74.60;;;;;;4975458;28;46356;-85
2021/12/26 12:35:05;;;;;;;10.30;7.50;;;9.30;74.80;;;;;;4973082;28;46656;-87
2021/12/26 12:37:45;;;;;;;13.23;7.57;;;9.20;75.10;;;;;;4972960;28;46629;-84
2021/12/26 12:40:37;;;;;;;10.00;6.80;;;9.10;75.50;;;;;;4979920;28;46413;-85
2021/12/26 12:43:18;;;;;;;11.80;7.50;;;9.00;75.70;;;;;;4973955;28;46819;-85
2021/12/26 12:45:53;;;;;;;13.60;7.03;;;9.10;75.80;;;;;;4974471;28;46503;-83
2021/12/26 12:48:26;;;;;;;9.37;6.77;;;9.00;76.10;;;;;;4973148;28;46637;-87
2021/12/26 12:50:54;;;;;;;11.17;6.67;;;9.20;75.50;;;;;;4973235;28;46314;-87
2021/12/26 12:53:38;;;;;;;12.63;6.60;;;9.20;75.20;;;;;;4972690;28;46510;-85